sensor_id;sensor_type;location;lat;lon;timestamp;pressure;altitude;pressure_sealevel;temperature;humidity
52957;BME280;38819;42.692;23.342;2023-03-04T00:00:36;95339.66;;;7.73;73.55
52957;BME280;38819;42.692;23.342;2023-03-04T00:03:01;95333.75;;;7.76;73.84
52957;BME280;38819;42.692;23.342;2023-03-04T00:05:27;95334.00;;;7.80;73.45
52957;BME280;38819;42.692;23.342;2023-03-04T00:07:52;95337.78;;;7.74;73.56
52957;BME280;38819;42.692;23.342;2023-03-04T00:10:18;95338.84;;;7.73;73.59
52957;BME280;38819;42.692;23.342;2023-03-04T00:12:43;95341.00;;;7.71;73.59
52957;BME280;38819;42.692;23.342;2023-03-04T00:15:09;95338.88;;;7.68;74.11
52957;BME280;38819;42.692;23.342;2023-03-04T00:17:34;95334.03;;;7.59;74.41
52957;BME280;38819;42.692;23.342;2023-03-04T00:20:00;95328.94;;;7.48;74.94
52957;BME280;38819;42.692;23.342;2023-03-04T00:22:25;95326.78;;;7.50;75.17
52957;BME280;38819;42.692;23.342;2023-03-04T00:24:50;95323.03;;;7.40;75.43
52957;BME280;38819;42.692;23.342;2023-03-04T00:27:16;95328.94;;;7.42;75.23
52957;BME280;38819;42.692;23.342;2023-03-04T00:29:41;95318.19;;;7.48;75.11
52957;BME280;38819;42.692;23.342;2023-03-04T00:32:07;95316.28;;;7.53;74.93
52957;BME280;38819;42.692;23.342;2023-03-04T00:34:32;95315.50;;;7.53;75.25
52957;BME280;38819;42.692;23.342;2023-03-04T00:36:58;95314.19;;;7.45;75.30
52957;BME280;38819;42.692;23.342;2023-03-04T00:39:28;95316.56;;;7.41;75.46
52957;BME280;38819;42.692;23.342;2023-03-04T00:41:54;95319.81;;;7.38;75.69
52957;BME280;38819;42.692;23.342;2023-03-04T00:44:20;95318.72;;;7.39;75.81
52957;BME280;38819;42.692;23.342;2023-03-04T00:46:45;95315.50;;;7.48;75.53
52957;BME280;38819;42.692;23.342;2023-03-04T00:49:10;95309.06;;;7.38;75.54
52957;BME280;38819;42.692;23.342;2023-03-04T00:51:36;95312.56;;;7.39;75.50
52957;BME280;38819;42.692;23.342;2023-03-04T00:54:02;95310.38;;;7.46;75.28
52957;BME280;38819;42.692;23.342;2023-03-04T00:56:28;95307.69;;;7.46;74.75
52957;BME280;38819;42.692;23.342;2023-03-04T00:58:53;95305.56;;;7.43;74.53
52957;BME280;38819;42.692;23.342;2023-03-04T01:01:19;95307.97;;;7.39;74.69
52957;BME280;38819;42.692;23.342;2023-03-04T01:03:44;95309.06;;;7.38;74.85
52957;BME280;38819;42.692;23.342;2023-03-04T01:06:10;95306.91;;;7.35;74.50
52957;BME280;38819;42.692;23.342;2023-03-04T01:08:36;95309.34;;;7.37;74.56
52957;BME280;38819;42.692;23.342;2023-03-04T01:11:01;95310.13;;;7.37;74.43
52957;BME280;38819;42.692;23.342;2023-03-04T01:13:27;95313.59;;;7.48;74.20
52957;BME280;38819;42.692;23.342;2023-03-04T01:15:52;95309.31;;;7.57;73.96
52957;BME280;38819;42.692;23.342;2023-03-04T01:18:18;95304.72;;;7.58;73.67
52957;BME280;38819;42.692;23.342;2023-03-04T01:20:43;95297.50;;;7.58;73.79
52957;BME280;38819;42.692;23.342;2023-03-04T01:23:08;95307.44;;;7.48;73.99
52957;BME280;38819;42.692;23.342;2023-03-04T01:25:34;95303.13;;;7.57;73.70
52957;BME280;38819;42.692;23.342;2023-03-04T01:27:59;95304.22;;;7.40;73.72
52957;BME280;38819;42.692;23.342;2023-03-04T01:30:25;95294.00;;;7.37;73.91
52957;BME280;38819;42.692;23.342;2023-03-04T01:32:50;95301.53;;;7.40;73.89
52957;BME280;38819;42.692;23.342;2023-03-04T01:35:15;95296.97;;;7.36;74.10
52957;BME280;38819;42.692;23.342;2023-03-04T01:37:41;95294.56;;;7.34;74.09
52957;BME280;38819;42.692;23.342;2023-03-04T01:40:07;95293.47;;;7.35;74.16
52957;BME280;38819;42.692;23.342;2023-03-04T01:42:34;95282.44;;;7.27;74.23
52957;BME280;38819;42.692;23.342;2023-03-04T01:45:00;95276.28;;;7.36;74.07
52957;BME280;38819;42.692;23.342;2023-03-04T01:47:28;95277.34;;;7.40;73.85
52957;BME280;38819;42.692;23.342;2023-03-04T01:49:55;95271.69;;;7.47;73.83
52957;BME280;38819;42.692;23.342;2023-03-04T01:52:21;95267.41;;;7.46;73.53
52957;BME280;38819;42.692;23.342;2023-03-04T01:54:47;95277.88;;;7.42;73.83
52957;BME280;38819;42.692;23.342;2023-03-04T01:57:34;95272.75;;;7.51;73.66
52957;BME280;38819;42.692;23.342;2023-03-04T02:00:23;95272.75;;;7.51;73.41
52957;BME280;38819;42.692;23.342;2023-03-04T02:02:52;95258.81;;;7.44;73.35
52957;BME280;38819;42.692;23.342;2023-03-04T02:05:20;95267.91;;;7.48;73.46
52957;BME280;38819;42.692;23.342;2023-03-04T02:07:47;95264.94;;;7.55;73.03
52957;BME280;38819;42.692;23.342;2023-03-04T02:10:13;95269.81;;;7.53;73.13
52957;BME280;38819;42.692;23.342;2023-03-04T02:12:39;95269.53;;;7.54;72.93
52957;BME280;38819;42.692;23.342;2023-03-04T02:15:05;95260.13;;;7.57;72.84
52957;BME280;38819;42.692;23.342;2023-03-04T02:17:31;95259.84;;;7.64;72.60
52957;BME280;38819;42.692;23.342;2023-03-04T02:22:28;95259.56;;;7.70;72.19
52957;BME280;38819;42.692;23.342;2023-03-04T02:24:57;95260.63;;;7.69;72.15
52957;BME280;38819;42.692;23.342;2023-03-04T02:27:24;95263.84;;;7.71;72.00
52957;BME280;38819;42.692;23.342;2023-03-04T02:29:50;95264.97;;;7.65;72.27
52957;BME280;38819;42.692;23.342;2023-03-04T02:32:15;95265.22;;;7.64;72.40
52957;BME280;38819;42.692;23.342;2023-03-04T02:34:48;95261.72;;;7.63;72.37
52957;BME280;38819;42.692;23.342;2023-03-04T02:37:16;95268.94;;;7.73;72.34
52957;BME280;38819;42.692;23.342;2023-03-04T02:39:45;95262.78;;;7.72;72.05
52957;BME280;38819;42.692;23.342;2023-03-04T02:42:12;95260.31;;;7.81;71.91
52957;BME280;38819;42.692;23.342;2023-03-04T02:44:40;95258.72;;;7.80;72.00
52957;BME280;38819;42.692;23.342;2023-03-04T02:47:09;95250.41;;;7.71;72.12
52957;BME280;38819;42.692;23.342;2023-03-04T02:49:36;95251.50;;;7.60;72.88
52957;BME280;38819;42.692;23.342;2023-03-04T02:52:05;95248.81;;;7.55;73.12
52957;BME280;38819;42.692;23.342;2023-03-04T02:54:31;95253.41;;;7.49;73.17
52957;BME280;38819;42.692;23.342;2023-03-04T02:57:00;95252.06;;;7.47;73.29
52957;BME280;38819;42.692;23.342;2023-03-04T02:59:27;95255.59;;;7.37;73.40
52957;BME280;38819;42.692;23.342;2023-03-04T03:01:52;95246.47;;;7.28;73.67
52957;BME280;38819;42.692;23.342;2023-03-04T03:04:18;95251.06;;;7.17;74.10
52957;BME280;38819;42.692;23.342;2023-03-04T03:06:44;95245.13;;;7.10;74.45
52957;BME280;38819;42.692;23.342;2023-03-04T03:09:10;95253.44;;;7.03;74.57
52957;BME280;38819;42.692;23.342;2023-03-04T03:11:36;95248.38;;;7.12;74.16
52957;BME280;38819;42.692;23.342;2023-03-04T03:14:01;95253.47;;;7.18;73.67
52957;BME280;38819;42.692;23.342;2023-03-04T03:16:27;95255.31;;;7.18;73.66
52957;BME280;38819;42.692;23.342;2023-03-04T03:18:52;95256.69;;;7.20;73.65
52957;BME280;38819;42.692;23.342;2023-03-04T03:21:18;95256.13;;;7.13;73.78
52957;BME280;38819;42.692;23.342;2023-03-04T03:23:43;95256.69;;;7.10;74.04
52957;BME280;38819;42.692;23.342;2023-03-04T03:26:09;95253.44;;;7.13;73.79
52957;BME280;38819;42.692;23.342;2023-03-04T03:28:34;95254.00;;;6.95;74.38
52957;BME280;38819;42.692;23.342;2023-03-04T03:31:00;95257.50;;;6.95;74.31
52957;BME280;38819;42.692;23.342;2023-03-04T03:33:26;95245.66;;;6.86;74.72
52957;BME280;38819;42.692;23.342;2023-03-04T03:35:52;95244.03;;;6.80;74.49
52957;BME280;38819;42.692;23.342;2023-03-04T03:38:17;95247.28;;;6.92;74.13
52957;BME280;38819;42.692;23.342;2023-03-04T03:40:42;95251.03;;;6.96;73.95
52957;BME280;38819;42.692;23.342;2023-03-04T03:43:08;95248.91;;;6.98;74.05
52957;BME280;38819;42.692;23.342;2023-03-04T03:45:33;95250.78;;;6.82;74.30
52957;BME280;38819;42.692;23.342;2023-03-04T03:47:59;95246.19;;;6.67;74.85
52957;BME280;38819;42.692;23.342;2023-03-04T03:50:24;95251.53;;;6.57;74.95
52957;BME280;38819;42.692;23.342;2023-03-04T03:52:50;95244.88;;;6.70;74.42
52957;BME280;38819;42.692;23.342;2023-03-04T03:55:15;95243.78;;;6.71;74.33
52957;BME280;38819;42.692;23.342;2023-03-04T03:57:41;95232.78;;;6.73;73.99
52957;BME280;38819;42.692;23.342;2023-03-04T04:00:08;95235.72;;;6.66;74.10
52957;BME280;38819;42.692;23.342;2023-03-04T04:02:33;95237.09;;;6.74;74.19
52957;BME280;38819;42.692;23.342;2023-03-04T04:04:59;95227.94;;;6.70;73.74
52957;BME280;38819;42.692;23.342;2023-03-04T04:07:24;95224.44;;;6.48;74.58
52957;BME280;38819;42.692;23.342;2023-03-04T04:09:50;95223.34;;;6.34;75.19
52957;BME280;38819;42.692;23.342;2023-03-04T04:12:17;95227.38;;;6.37;74.93
52957;BME280;38819;42.692;23.342;2023-03-04T04:14:43;95224.44;;;6.48;74.67
52957;BME280;38819;42.692;23.342;2023-03-04T04:17:08;95229.81;;;6.48;74.32
52957;BME280;38819;42.692;23.342;2023-03-04T04:19:35;95218.81;;;6.45;74.58
52957;BME280;38819;42.692;23.342;2023-03-04T04:22:02;95227.91;;;6.49;74.39
52957;BME280;38819;42.692;23.342;2023-03-04T04:24:28;95229.22;;;6.36;74.51
52957;BME280;38819;42.692;23.342;2023-03-04T04:26:54;95225.75;;;6.41;74.38
52957;BME280;38819;42.692;23.342;2023-03-04T04:29:19;95229.22;;;6.36;74.51
52957;BME280;38819;42.692;23.342;2023-03-04T04:31:47;95230.31;;;6.40;74.43
52957;BME280;38819;42.692;23.342;2023-03-04T04:34:12;95235.41;;;6.37;74.44
52957;BME280;38819;42.692;23.342;2023-03-04T04:36:38;95231.91;;;6.41;74.37
52957;BME280;38819;42.692;23.342;2023-03-04T04:39:03;95229.78;;;6.38;74.36
52957;BME280;38819;42.692;23.342;2023-03-04T04:41:33;95236.50;;;6.41;74.11
52957;BME280;38819;42.692;23.342;2023-03-04T04:44:00;95233.00;;;6.40;73.89
52957;BME280;38819;42.692;23.342;2023-03-04T04:46:25;95239.69;;;6.38;73.64
52957;BME280;38819;42.692;23.342;2023-03-04T04:48:51;95235.69;;;6.35;73.66
52957;BME280;38819;42.692;23.342;2023-03-04T04:51:16;95234.84;;;6.35;73.57
52957;BME280;38819;42.692;23.342;2023-03-04T04:53:42;95227.38;;;6.37;73.70
52957;BME280;38819;42.692;23.342;2023-03-04T04:56:17;95233.78;;;6.36;73.71
52957;BME280;38819;42.692;23.342;2023-03-04T04:58:44;95243.16;;;6.28;74.03
52957;BME280;38819;42.692;23.342;2023-03-04T05:01:09;95233.75;;;6.20;74.36
52957;BME280;38819;42.692;23.342;2023-03-04T05:03:36;95240.72;;;6.16;74.55
52957;BME280;38819;42.692;23.342;2023-03-04T05:06:05;95247.44;;;6.24;74.61
52957;BME280;38819;42.692;23.342;2023-03-04T05:08:31;95254.41;;;6.20;74.85
52957;BME280;38819;42.692;23.342;2023-03-04T05:10:56;95252.78;;;6.14;74.92
52957;BME280;38819;42.692;23.342;2023-03-04T05:13:22;95252.56;;;6.25;75.09
52957;BME280;38819;42.692;23.342;2023-03-04T05:15:50;95262.50;;;6.30;74.75
52957;BME280;38819;42.692;23.342;2023-03-04T05:18:16;95268.16;;;6.39;74.89
52957;BME280;38819;42.692;23.342;2023-03-04T05:20:42;95265.22;;;6.45;74.73
52957;BME280;38819;42.692;23.342;2023-03-04T05:23:07;95258.78;;;6.52;74.83
52957;BME280;38819;42.692;23.342;2023-03-04T05:25:33;95257.97;;;6.56;74.84
52957;BME280;38819;42.692;23.342;2023-03-04T05:27:58;95269.53;;;6.52;75.34
52957;BME280;38819;42.692;23.342;2023-03-04T05:30:26;95262.53;;;6.51;75.34
52957;BME280;38819;42.692;23.342;2023-03-04T05:32:52;95264.69;;;6.59;75.19
52957;BME280;38819;42.692;23.342;2023-03-04T05:35:17;95271.97;;;6.63;75.21
52957;BME280;38819;42.692;23.342;2023-03-04T05:37:42;95278.94;;;6.70;74.90
52957;BME280;38819;42.692;23.342;2023-03-04T05:40:08;95260.97;;;6.70;74.91
52957;BME280;38819;42.692;23.342;2023-03-04T05:42:34;95274.91;;;6.62;75.14
52957;BME280;38819;42.692;23.342;2023-03-04T05:44:59;95269.81;;;6.65;75.82
52957;BME280;38819;42.692;23.342;2023-03-04T05:47:25;95268.19;;;6.70;76.18
52957;BME280;38819;42.692;23.342;2023-03-04T05:49:50;95271.44;;;6.72;76.17
52957;BME280;38819;42.692;23.342;2023-03-04T05:52:16;95271.44;;;6.82;75.87
52957;BME280;38819;42.692;23.342;2023-03-04T05:54:41;95272.50;;;6.91;75.88
52957;BME280;38819;42.692;23.342;2023-03-04T05:57:06;95284.34;;;7.00;75.92
52957;BME280;38819;42.692;23.342;2023-03-04T05:59:32;95277.63;;;7.03;75.81
52957;BME280;38819;42.692;23.342;2023-03-04T06:01:57;95277.34;;;7.04;75.68
52957;BME280;38819;42.692;23.342;2023-03-04T06:04:23;95277.34;;;7.04;75.80
52957;BME280;38819;42.692;23.342;2023-03-04T06:06:48;95290.50;;;7.21;75.43
52957;BME280;38819;42.692;23.342;2023-03-04T06:09:14;95284.63;;;7.19;75.45
52957;BME280;38819;42.692;23.342;2023-03-04T06:11:40;95290.25;;;7.23;75.77
52957;BME280;38819;42.692;23.342;2023-03-04T06:14:06;95291.88;;;7.24;75.17
52957;BME280;38819;42.692;23.342;2023-03-04T06:16:31;95288.66;;;7.27;74.47
52957;BME280;38819;42.692;23.342;2023-03-04T06:18:56;95289.97;;;7.30;74.55
52957;BME280;38819;42.692;23.342;2023-03-04T06:21:22;95294.53;;;7.39;74.34
52957;BME280;38819;42.692;23.342;2023-03-04T06:23:47;95292.38;;;7.41;74.14
52957;BME280;38819;42.692;23.342;2023-03-04T06:26:13;95292.38;;;7.36;74.24
52957;BME280;38819;42.692;23.342;2023-03-04T06:28:43;95289.97;;;7.40;74.36
52957;BME280;38819;42.692;23.342;2023-03-04T06:31:09;95291.06;;;7.29;74.54
52957;BME280;38819;42.692;23.342;2023-03-04T06:33:35;95297.78;;;7.31;74.39
52957;BME280;38819;42.692;23.342;2023-03-04T06:36:00;95308.25;;;7.33;74.38
52957;BME280;38819;42.692;23.342;2023-03-04T06:38:26;95296.44;;;7.23;74.06
52957;BME280;38819;42.692;23.342;2023-03-04T06:40:52;95299.09;;;6.98;74.54
52957;BME280;38819;42.692;23.342;2023-03-04T06:43:18;95298.31;;;6.97;75.00
52957;BME280;38819;42.692;23.342;2023-03-04T06:45:44;95305.84;;;6.95;75.83
52957;BME280;38819;42.692;23.342;2023-03-04T06:48:10;95301.53;;;6.99;76.24
52957;BME280;38819;42.692;23.342;2023-03-04T06:50:36;95305.56;;;6.97;75.62
52957;BME280;38819;42.692;23.342;2023-03-04T06:53:01;95301.78;;;6.98;74.98
52957;BME280;38819;42.692;23.342;2023-03-04T06:55:26;95299.94;;;7.03;74.65
52957;BME280;38819;42.692;23.342;2023-03-04T06:57:52;95306.63;;;7.06;74.58
52957;BME280;38819;42.692;23.342;2023-03-04T07:00:18;95313.09;;;7.10;73.78
52957;BME280;38819;42.692;23.342;2023-03-04T07:02:44;95312.28;;;7.15;73.25
52957;BME280;38819;42.692;23.342;2023-03-04T07:05:10;95303.16;;;7.16;73.25
52957;BME280;38819;42.692;23.342;2023-03-04T07:07:36;95313.09;;;7.36;72.67
52957;BME280;38819;42.692;23.342;2023-03-04T07:10:02;95308.25;;;7.33;72.05
52957;BME280;38819;42.692;23.342;2023-03-04T07:12:27;95311.72;;;7.33;71.08
52957;BME280;38819;42.692;23.342;2023-03-04T07:14:53;95312.81;;;7.42;71.18
52957;BME280;38819;42.692;23.342;2023-03-04T07:17:18;95310.91;;;7.48;70.88
52957;BME280;38819;42.692;23.342;2023-03-04T07:19:43;95320.84;;;7.58;70.91
52957;BME280;38819;42.692;23.342;2023-03-04T07:22:09;95329.19;;;7.56;71.29
52957;BME280;38819;42.692;23.342;2023-03-04T07:24:35;95316.03;;;7.45;70.75
52957;BME280;38819;42.692;23.342;2023-03-04T07:27:00;95323.56;;;7.58;70.75
52957;BME280;38819;42.692;23.342;2023-03-04T07:29:25;95321.69;;;7.58;71.03
52957;BME280;38819;42.692;23.342;2023-03-04T07:31:51;95304.72;;;7.63;70.65
52957;BME280;38819;42.692;23.342;2023-03-04T07:34:16;95318.16;;;7.73;70.19
52957;BME280;38819;42.692;23.342;2023-03-04T07:36:43;95317.59;;;7.82;70.01
52957;BME280;38819;42.692;23.342;2023-03-04T07:39:09;95318.16;;;7.73;69.54
52957;BME280;38819;42.692;23.342;2023-03-04T07:41:37;95322.97;;;7.82;70.11
52957;BME280;38819;42.692;23.342;2023-03-04T07:44:04;95316.78;;;7.81;69.44
52957;BME280;38819;42.692;23.342;2023-03-04T07:46:29;95316.25;;;7.84;69.83
52957;BME280;38819;42.692;23.342;2023-03-04T07:48:55;95320.81;;;7.94;69.53
52957;BME280;38819;42.692;23.342;2023-03-04T07:51:22;95315.41;;;7.99;69.21
52957;BME280;38819;42.692;23.342;2023-03-04T07:53:50;95305.75;;;7.88;68.69
52957;BME280;38819;42.692;23.342;2023-03-04T07:56:19;95317.00;;;8.00;68.99
52957;BME280;38819;42.692;23.342;2023-03-04T07:58:45;95312.97;;;8.08;68.16
52957;BME280;38819;42.692;23.342;2023-03-04T08:01:14;95312.41;;;8.16;67.64
52957;BME280;38819;42.692;23.342;2023-03-04T08:03:40;95308.94;;;8.10;67.27
52957;BME280;38819;42.692;23.342;2023-03-04T08:06:07;95311.06;;;8.13;67.18
52957;BME280;38819;42.692;23.342;2023-03-04T08:08:33;95314.03;;;8.17;67.96
52957;BME280;38819;42.692;23.342;2023-03-04T08:10:59;95314.03;;;8.12;70.24
52957;BME280;38819;42.692;23.342;2023-03-04T08:13:24;95307.53;;;8.18;70.36
52957;BME280;38819;42.692;23.342;2023-03-04T08:15:50;95306.75;;;8.18;69.03
52957;BME280;38819;42.692;23.342;2023-03-04T08:18:15;95315.31;;;8.25;69.91
52957;BME280;38819;42.692;23.342;2023-03-04T08:20:41;95310.72;;;8.35;70.11
52957;BME280;38819;42.692;23.342;2023-03-04T08:23:09;95304.78;;;8.44;70.00
52957;BME280;38819;42.692;23.342;2023-03-04T08:25:38;95305.31;;;8.46;70.63
52957;BME280;38819;42.692;23.342;2023-03-04T08:28:04;95298.06;;;8.36;71.14
52957;BME280;38819;42.692;23.342;2023-03-04T08:30:30;95303.41;;;8.46;71.01
52957;BME280;38819;42.692;23.342;2023-03-04T08:32:55;95300.97;;;8.50;70.68
52957;BME280;38819;42.692;23.342;2023-03-04T08:35:20;95307.47;;;8.49;69.45
52957;BME280;38819;42.692;23.342;2023-03-04T08:37:46;95305.25;;;8.56;69.41
52957;BME280;38819;42.692;23.342;2023-03-04T08:40:12;95301.53;;;8.47;66.28
52957;BME280;38819;42.692;23.342;2023-03-04T08:42:38;95300.47;;;8.43;66.82
52957;BME280;38819;42.692;23.342;2023-03-04T08:45:04;95296.16;;;8.52;68.37
52957;BME280;38819;42.692;23.342;2023-03-04T08:47:29;95291.25;;;8.59;68.91
52957;BME280;38819;42.692;23.342;2023-03-04T08:49:55;95296.91;;;8.58;69.25
52957;BME280;38819;42.692;23.342;2023-03-04T08:52:22;95297.44;;;8.60;69.54
52957;BME280;38819;42.692;23.342;2023-03-04T08:54:48;95284.19;;;8.68;69.14
52957;BME280;38819;42.692;23.342;2023-03-04T08:57:13;95299.22;;;8.75;69.63
52957;BME280;38819;42.692;23.342;2023-03-04T08:59:39;95294.38;;;8.77;69.81
52957;BME280;38819;42.692;23.342;2023-03-04T09:02:04;95293.03;;;8.79;68.91
52957;BME280;38819;42.692;23.342;2023-03-04T09:04:29;95283.53;;;8.87;68.61
52957;BME280;38819;42.692;23.342;2023-03-04T09:06:55;95284.56;;;8.96;68.63
52957;BME280;38819;42.692;23.342;2023-03-04T09:09:20;95282.63;;;9.02;68.27
52957;BME280;38819;42.692;23.342;2023-03-04T09:11:46;95278.00;;;9.07;68.09
52957;BME280;38819;42.692;23.342;2023-03-04T09:14:11;95283.63;;;9.11;67.76
52957;BME280;38819;42.692;23.342;2023-03-04T09:16:37;95278.72;;;9.18;67.19
52957;BME280;38819;42.692;23.342;2023-03-04T09:19:02;95281.91;;;9.25;67.25
52957;BME280;38819;42.692;23.342;2023-03-04T09:21:28;95269.75;;;9.28;66.35
52957;BME280;38819;42.692;23.342;2023-03-04T09:23:53;95273.50;;;9.32;66.50
52957;BME280;38819;42.692;23.342;2023-03-04T09:26:24;95270.50;;;9.34;66.31
52957;BME280;38819;42.692;23.342;2023-03-04T09:28:54;95265.97;;;9.29;65.52
52957;BME280;38819;42.692;23.342;2023-03-04T09:31:21;95267.78;;;9.39;65.33
52957;BME280;38819;42.692;23.342;2023-03-04T09:33:47;95267.44;;;9.16;65.44
52957;BME280;38819;42.692;23.342;2023-03-04T09:36:13;95262.03;;;9.16;65.97
52957;BME280;38819;42.692;23.342;2023-03-04T09:38:40;95270.38;;;9.20;65.84
52957;BME280;38819;42.692;23.342;2023-03-04T09:41:14;95271.44;;;9.24;66.47
52957;BME280;38819;42.692;23.342;2023-03-04T09:43:42;95257.25;;;9.08;66.85
52957;BME280;38819;42.692;23.342;2023-03-04T09:46:15;95260.22;;;9.06;66.13
52957;BME280;38819;42.692;23.342;2023-03-04T09:48:48;95260.91;;;9.22;66.31
52957;BME280;38819;42.692;23.342;2023-03-04T09:54:30;95253.69;;;8.78;66.72
52957;BME280;38819;42.692;23.342;2023-03-04T09:56:58;95258.78;;;8.85;66.44
52957;BME280;38819;42.692;23.342;2023-03-04T09:59:31;95254.66;;;8.98;66.33
52957;BME280;38819;42.692;23.342;2023-03-04T10:02:08;95250.97;;;8.83;66.37
52957;BME280;38819;42.692;23.342;2023-03-04T10:04:43;95249.34;;;8.87;66.01
52957;BME280;38819;42.692;23.342;2023-03-04T10:07:18;95246.81;;;9.01;65.50
52957;BME280;38819;42.692;23.342;2023-03-04T10:09:50;95240.41;;;8.92;65.68
52957;BME280;38819;42.692;23.342;2023-03-04T10:12:21;95240.22;;;8.78;65.31
52957;BME280;38819;42.692;23.342;2023-03-04T10:15:16;95229.75;;;8.77;65.60
52957;BME280;38819;42.692;23.342;2023-03-04T10:17:46;95227.91;;;8.67;66.14
52957;BME280;38819;42.692;23.342;2023-03-04T10:20:21;95231.44;;;8.67;65.90
52957;BME280;38819;42.692;23.342;2023-03-04T10:22:49;95229.38;;;8.88;65.20
52957;BME280;38819;42.692;23.342;2023-03-04T10:25:35;95223.38;;;8.97;65.17
52957;BME280;38819;42.692;23.342;2023-03-04T10:28:11;95226.66;;;8.94;64.22
52957;BME280;38819;42.692;23.342;2023-03-04T10:33:17;95219.09;;;8.96;64.75
52957;BME280;38819;42.692;23.342;2023-03-04T10:35:47;95216.31;;;9.06;64.05
52957;BME280;38819;42.692;23.342;2023-03-04T10:38:15;95208.34;;;8.96;63.90
52957;BME280;38819;42.692;23.342;2023-03-04T10:40:41;95207.44;;;9.05;63.91
52957;BME280;38819;42.692;23.342;2023-03-04T10:43:17;95199.69;;;8.99;64.48
52957;BME280;38819;42.692;23.342;2023-03-04T10:45:43;95197.78;;;8.99;64.61
52957;BME280;38819;42.692;23.342;2023-03-04T10:48:21;95196.22;;;8.93;64.30
52957;BME280;38819;42.692;23.342;2023-03-04T10:50:47;95196.94;;;9.04;64.06
52957;BME280;38819;42.692;23.342;2023-03-04T10:53:31;95192.63;;;9.03;65.08
52957;BME280;38819;42.692;23.342;2023-03-04T10:56:00;95183.03;;;8.92;65.01
52957;BME280;38819;42.692;23.342;2023-03-04T10:58:27;95183.16;;;8.76;65.26
52957;BME280;38819;42.692;23.342;2023-03-04T11:01:01;95184.47;;;8.84;65.44
52957;BME280;38819;42.692;23.342;2023-03-04T11:03:35;95169.41;;;8.78;65.77
52957;BME280;38819;42.692;23.342;2023-03-04T11:06:05;95171.13;;;8.98;65.53
52957;BME280;38819;42.692;23.342;2023-03-04T11:08:31;95164.19;;;8.92;65.40
52957;BME280;38819;42.692;23.342;2023-03-04T11:10:56;95163.38;;;8.91;65.92
52957;BME280;38819;42.692;23.342;2023-03-04T11:13:24;95155.53;;;8.95;64.65
52957;BME280;38819;42.692;23.342;2023-03-04T11:21:02;95144.16;;;9.03;64.61
52957;BME280;38819;42.692;23.342;2023-03-04T11:23:46;95137.00;;;9.17;64.74
52957;BME280;38819;42.692;23.342;2023-03-04T11:26:20;95135.97;;;9.13;64.41
52957;BME280;38819;42.692;23.342;2023-03-04T11:28:55;95126.84;;;9.33;64.08
52957;BME280;38819;42.692;23.342;2023-03-04T11:31:27;95131.34;;;9.19;64.21
52957;BME280;38819;42.692;23.342;2023-03-04T11:36:51;95123.91;;;9.54;63.85
52957;BME280;38819;42.692;23.342;2023-03-04T11:44:47;95115.81;;;9.78;63.09
52957;BME280;38819;42.692;23.342;2023-03-04T11:47:16;95107.81;;;9.92;62.82
52957;BME280;38819;42.692;23.342;2023-03-04T11:55:25;95101.69;;;9.86;62.12
52957;BME280;38819;42.692;23.342;2023-03-04T11:58:17;95100.97;;;9.99;62.01
52957;BME280;38819;42.692;23.342;2023-03-04T12:01:10;95089.88;;;10.01;62.40
52957;BME280;38819;42.692;23.342;2023-03-04T12:15:22;95076.31;;;10.44;60.93
52957;BME280;38819;42.692;23.342;2023-03-04T12:18:01;95072.41;;;10.50;60.75
52957;BME280;38819;42.692;23.342;2023-03-04T12:21:03;95070.91;;;10.44;60.47
52957;BME280;38819;42.692;23.342;2023-03-04T12:23:27;95062.72;;;10.49;60.38
52957;BME280;38819;42.692;23.342;2023-03-04T12:26:06;95064.59;;;10.49;60.10
52957;BME280;38819;42.692;23.342;2023-03-04T12:28:44;95066.91;;;10.42;60.44
52957;BME280;38819;42.692;23.342;2023-03-04T12:31:31;95062.59;;;10.41;61.00
52957;BME280;38819;42.692;23.342;2023-03-04T12:36:54;95063.31;;;10.27;61.16
52957;BME280;38819;42.692;23.342;2023-03-04T12:39:32;95056.94;;;10.04;61.86
52957;BME280;38819;42.692;23.342;2023-03-04T12:44:30;95052.97;;;9.96;62.12
52957;BME280;38819;42.692;23.342;2023-03-04T12:53:10;95051.53;;;10.04;61.92
52957;BME280;38819;42.692;23.342;2023-03-04T12:55:44;95041.03;;;10.02;62.32
52957;BME280;38819;42.692;23.342;2023-03-04T12:58:17;95040.28;;;10.16;62.05
52957;BME280;38819;42.692;23.342;2023-03-04T13:09:03;95027.75;;;10.58;60.44
52957;BME280;38819;42.692;23.342;2023-03-04T13:11:38;95019.56;;;10.63;60.09
52957;BME280;38819;42.692;23.342;2023-03-04T13:14:23;95009.44;;;10.69;60.14
52957;BME280;38819;42.692;23.342;2023-03-04T13:16:51;95012.06;;;10.74;59.78
52957;BME280;38819;42.692;23.342;2023-03-04T13:24:52;95011.63;;;10.53;60.30
52957;BME280;38819;42.692;23.342;2023-03-04T13:28:05;95009.84;;;10.62;60.18
52957;BME280;38819;42.692;23.342;2023-03-04T13:32:57;95008.84;;;10.58;60.33
52957;BME280;38819;42.692;23.342;2023-03-04T13:43:48;95000.16;;;10.61;60.25
52957;BME280;38819;42.692;23.342;2023-03-04T13:49:06;94995.03;;;10.60;60.03
52957;BME280;38819;42.692;23.342;2023-03-04T13:51:42;94995.63;;;10.56;61.04
52957;BME280;38819;42.692;23.342;2023-03-04T13:54:26;94995.63;;;10.56;60.88
52957;BME280;38819;42.692;23.342;2023-03-04T13:59:31;94986.56;;;10.33;60.90
52957;BME280;38819;42.692;23.342;2023-03-04T14:02:01;94984.66;;;10.34;61.04
52957;BME280;38819;42.692;23.342;2023-03-04T14:04:32;94970.94;;;10.30;61.53
52957;BME280;38819;42.692;23.342;2023-03-04T14:07:00;94975.47;;;10.35;61.33
52957;BME280;38819;42.692;23.342;2023-03-04T14:09:26;94973.28;;;10.37;60.74
52957;BME280;38819;42.692;23.342;2023-03-04T14:11:54;94968.47;;;10.34;61.08
52957;BME280;38819;42.692;23.342;2023-03-04T14:14:50;94970.03;;;10.21;61.11
52957;BME280;38819;42.692;23.342;2023-03-04T14:17:20;94965.59;;;10.11;61.68
52957;BME280;38819;42.692;23.342;2023-03-04T14:19:48;94967.84;;;10.23;61.50
52957;BME280;38819;42.692;23.342;2023-03-04T14:22:47;94966.69;;;10.10;61.44
52957;BME280;38819;42.692;23.342;2023-03-04T14:27:43;94967.63;;;10.19;61.75